MPTO/PTY METAR and TAF weather

Enter ICAO airport designator
Station Type Date Time Source
MPTO METAR 2021/09/16 21:00 UTC NOAA

MPTO 162100Z 14009KT 8000 TSVCSH SCT018CB SCT090 30/24 Q1010 TEMPO 6000 TSRA


Station Type Date Time Source
MPTO Decoded METAR 2021/09/16 21:00 UTC NOAA

Tocumen, Panama (MPTO) 09-03N 079-22W
Sep 16, 2021 - 05:00 PM EDT / 2021.09.16 2100 UTC
Wind: from the SE (140 degrees) at 10 MPH (9 KT):0
Visibility: 4 mile(s):0
Sky conditions: partly cloudy
Weather: with thunder showers; Cumulonimbus clouds observed
Temperature: 86 F (30 C)
Heat index: 95.0 F (35.0 C):1
Dew Point: 75 F (24 C)
Relative Humidity: 70%
Pressure (altimeter): 29.83 in. Hg (1010 hPa)
ob: MPTO 162100Z 14009KT 8000 TSVCSH SCT018CB SCT090 30/24 Q1010 TEMPO 6000 TSRA
cycle: 21

Station Type Date Time Source
MPTO TAF 2021/09/16 18:12 UTC NOAA

TAF MPTO 161700Z 1618/1724 15009KT 9999 SCT018 PROB30
TEMPO 1620/1623 8000 SHRA SCT016CB SCT090
TEMPO 1702/1706 29007KT 9999 FEW018
TEMPO 1706/1710 VRB02KT PROB30 1719/1723 18005KT 6000 TSRA SCT016CB BKN080

Example: see airport list